createdAt,value
2018-12-07T00:00:29.295Z,72.33
2018-12-07T00:02:57.955Z,75.43
2018-12-07T00:05:26.529Z,63.33
2018-12-07T00:07:56.094Z,68.30
2018-12-07T00:10:24.731Z,70.73
2018-12-07T00:12:53.344Z,73.13
2018-12-07T00:15:22.108Z,69.53
2018-12-07T00:17:50.819Z,77.90
2018-12-07T00:20:19.438Z,63.87
2018-12-07T00:22:48.053Z,67.57
2018-12-07T00:25:16.706Z,69.63
2018-12-07T00:27:45.305Z,73.33
2018-12-07T00:30:13.894Z,67.53
2018-12-07T00:32:42.519Z,66.73
2018-12-07T00:35:11.104Z,71.67
2018-12-07T00:37:40.293Z,66.50
2018-12-07T00:40:09.098Z,61.33
2018-12-07T00:42:37.685Z,69.13
2018-12-07T00:45:06.471Z,70.43
2018-12-07T00:47:35.143Z,68.70
2018-12-07T00:50:04.124Z,69.13
2018-12-07T00:52:32.679Z,68.70
2018-12-07T00:55:01.301Z,65.93
2018-12-07T00:57:29.903Z,62.90
2018-12-07T00:59:58.493Z,72.30
2018-12-07T01:02:27.218Z,74.13
2018-12-07T01:04:55.843Z,70.50
2018-12-07T01:07:24.485Z,74.67
2018-12-07T01:09:53.097Z,73.97
2018-12-07T01:12:21.682Z,75.40
2018-12-07T01:14:50.259Z,66.93
2018-12-07T01:17:18.863Z,76.60
2018-12-07T01:19:47.584Z,73.50
2018-12-07T01:22:16.187Z,78.20
2018-12-07T01:24:44.808Z,78.40
2018-12-07T01:27:13.376Z,79.00
2018-12-07T01:29:41.944Z,80.83
2018-12-07T01:32:10.585Z,85.17
2018-12-07T01:34:39.150Z,73.80
2018-12-07T01:37:07.724Z,79.37
2018-12-07T01:39:36.306Z,78.00
2018-12-07T01:42:04.942Z,73.67
2018-12-07T01:44:33.504Z,81.50
2018-12-07T01:47:02.151Z,88.00
2018-12-07T01:49:30.824Z,82.10
2018-12-07T01:51:59.397Z,85.40
2018-12-07T01:54:27.984Z,83.23
2018-12-07T01:56:56.565Z,84.57
2018-12-07T01:59:25.133Z,73.03
2018-12-07T02:01:53.734Z,80.13
2018-12-07T02:04:22.459Z,79.30
2018-12-07T02:06:51.079Z,84.23
2018-12-07T02:09:19.709Z,84.03
2018-12-07T02:11:48.269Z,81.33
2018-12-07T02:14:16.839Z,70.63
2018-12-07T02:16:45.464Z,77.10
2018-12-07T02:19:14.225Z,79.23
2018-12-07T02:21:42.804Z,88.77
2018-12-07T02:24:11.398Z,76.70
2018-12-07T02:26:39.973Z,89.63
2018-12-07T02:29:08.575Z,82.00
2018-12-07T02:31:37.214Z,86.97
2018-12-07T02:34:05.794Z,78.27
2018-12-07T02:36:34.385Z,93.47
2018-12-07T02:39:03.008Z,84.80
2018-12-07T02:41:31.578Z,83.53
2018-12-07T02:44:00.248Z,90.57
2018-12-07T02:46:28.928Z,93.03
2018-12-07T02:48:57.486Z,79.77
2018-12-07T02:51:26.039Z,83.43
2018-12-07T02:53:54.670Z,80.57
2018-12-07T02:56:23.270Z,87.13
2018-12-07T02:58:51.878Z,88.93
2018-12-07T03:01:20.548Z,83.63
2018-12-07T03:03:49.141Z,91.50
2018-12-07T03:06:17.736Z,77.87
2018-12-07T03:08:46.333Z,87.20
2018-12-07T03:11:14.935Z,75.07
2018-12-07T03:13:43.490Z,91.93
2018-12-07T03:16:12.154Z,87.37
2018-12-07T03:18:40.722Z,84.90
2018-12-07T03:21:09.289Z,79.97
2018-12-07T03:23:37.975Z,81.50
2018-12-07T03:26:06.584Z,92.57
2018-12-07T03:28:35.177Z,90.93
2018-12-07T03:31:03.916Z,87.97
2018-12-07T03:33:32.530Z,88.03
2018-12-07T03:36:01.144Z,86.87
2018-12-07T03:38:29.721Z,92.47
2018-12-07T03:40:58.422Z,90.03
2018-12-07T03:43:26.986Z,83.40
2018-12-07T03:45:55.589Z,86.27
2018-12-07T03:48:24.160Z,86.63
2018-12-07T03:50:52.759Z,92.20
2018-12-07T03:53:21.381Z,92.43
2018-12-07T03:55:50.003Z,86.93
2018-12-07T03:58:18.587Z,85.27
2018-12-07T04:00:47.203Z,85.20
2018-12-07T04:03:15.794Z,89.13
2018-12-07T04:05:44.391Z,85.57
2018-12-07T04:08:13.266Z,80.67
2018-12-07T04:10:41.861Z,80.87
2018-12-07T04:13:10.444Z,84.07
2018-12-07T04:15:39.161Z,82.63
2018-12-07T04:18:07.766Z,80.07
2018-12-07T04:20:36.343Z,76.33
2018-12-07T04:23:04.985Z,79.13
2018-12-07T04:25:33.596Z,77.73
2018-12-07T04:28:02.226Z,77.50
2018-12-07T04:30:30.893Z,83.70
2018-12-07T04:32:59.485Z,74.70
2018-12-07T04:35:28.079Z,81.77
2018-12-07T04:37:56.672Z,83.70
2018-12-07T04:40:25.237Z,83.80
2018-12-07T04:42:53.815Z,79.03
2018-12-07T04:45:22.534Z,75.77
2018-12-07T04:47:51.147Z,79.13
2018-12-07T04:50:19.725Z,72.90
2018-12-07T04:52:48.354Z,77.17
2018-12-07T04:55:16.936Z,74.43
2018-12-07T04:57:45.560Z,75.60
2018-12-07T05:00:14.191Z,74.60
2018-12-07T05:02:42.795Z,75.50
2018-12-07T05:05:11.462Z,77.83
2018-12-07T05:07:40.073Z,79.07
2018-12-07T05:10:08.939Z,77.17
2018-12-07T05:12:37.537Z,81.93
2018-12-07T05:15:07.135Z,72.57
2018-12-07T05:17:35.711Z,78.63
2018-12-07T05:20:05.476Z,75.00
2018-12-07T05:22:34.138Z,78.60
2018-12-07T05:25:03.060Z,84.00
2018-12-07T05:27:31.645Z,81.07
2018-12-07T05:30:00.257Z,74.83
2018-12-07T05:32:28.887Z,77.63
2018-12-07T05:34:57.460Z,81.60
2018-12-07T05:37:26.079Z,83.03
2018-12-07T05:39:54.650Z,79.23
2018-12-07T05:42:23.220Z,75.60
2018-12-07T05:44:51.853Z,76.63
2018-12-07T05:47:20.452Z,79.83
2018-12-07T05:49:49.028Z,79.80
2018-12-07T05:52:17.648Z,77.57
2018-12-07T05:54:46.194Z,78.30
2018-12-07T05:57:14.810Z,77.60
2018-12-07T05:59:43.392Z,84.60
2018-12-07T06:02:11.974Z,81.03
2018-12-07T06:04:40.564Z,81.63
2018-12-07T06:07:09.181Z,84.33
2018-12-07T06:09:37.770Z,87.80
2018-12-07T06:12:06.462Z,86.97
2018-12-07T06:14:35.066Z,88.13
2018-12-07T06:17:04.262Z,74.90
2018-12-07T06:19:32.865Z,90.17
2018-12-07T06:22:01.483Z,77.13
2018-12-07T06:24:30.032Z,85.37
2018-12-07T06:26:58.636Z,92.50
2018-12-07T06:29:27.268Z,84.80
2018-12-07T06:31:55.828Z,84.37
2018-12-07T06:34:24.400Z,78.17
2018-12-07T06:36:53.053Z,80.53
2018-12-07T06:39:21.627Z,80.23
2018-12-07T06:41:50.198Z,84.53
2018-12-07T06:44:18.821Z,83.83
2018-12-07T06:46:47.513Z,76.87
2018-12-07T06:49:16.172Z,79.83
2018-12-07T06:51:44.809Z,80.07
2018-12-07T06:54:13.366Z,83.00
2018-12-07T06:56:41.933Z,73.87
2018-12-07T06:59:10.540Z,86.27
2018-12-07T07:01:39.142Z,73.33
2018-12-07T07:04:07.723Z,75.97
2018-12-07T07:06:36.347Z,78.87
2018-12-07T07:09:08.291Z,73.03
2018-12-07T07:11:37.054Z,74.20
2018-12-07T07:14:06.017Z,70.77
2018-12-07T07:16:34.880Z,69.07
2018-12-07T07:19:03.505Z,69.47
2018-12-07T07:21:32.076Z,67.80
2018-12-07T07:24:00.665Z,64.43
2018-12-07T07:26:29.531Z,70.50
2018-12-07T07:28:58.121Z,68.13
2018-12-07T07:31:26.717Z,75.97
2018-12-07T07:33:55.460Z,72.47
2018-12-07T07:36:24.060Z,72.37
2018-12-07T07:38:52.677Z,64.57
2018-12-07T07:41:21.288Z,78.47
2018-12-07T07:43:49.838Z,74.13
2018-12-07T07:46:18.466Z,70.33
2018-12-07T07:48:47.049Z,75.90
2018-12-07T07:51:15.628Z,73.30
2018-12-07T07:53:44.220Z,69.13
2018-12-07T07:56:15.569Z,72.77
2018-12-07T07:58:43.413Z,68.37
2018-12-07T08:01:12.063Z,69.17
2018-12-07T08:03:40.659Z,73.13
2018-12-07T08:06:09.245Z,67.93
2018-12-07T08:08:37.863Z,72.97
2018-12-07T08:11:06.439Z,64.20
2018-12-07T08:13:35.051Z,68.90
2018-12-07T08:16:04.188Z,74.03
2018-12-07T08:18:32.827Z,90.70
2018-12-07T08:21:01.601Z,89.77
2018-12-07T08:23:30.188Z,124.77
2018-12-07T08:25:59.210Z,87.13
2018-12-07T08:28:27.826Z,82.97
2018-12-07T08:30:56.568Z,70.73
2018-12-07T08:33:25.170Z,76.97
2018-12-07T08:35:53.801Z,69.57
2018-12-07T08:38:22.533Z,77.83
2018-12-07T08:40:51.201Z,70.77
2018-12-07T08:43:19.822Z,71.10
2018-12-07T08:45:48.517Z,69.40
2018-12-07T08:48:17.119Z,68.70
2018-12-07T08:50:45.827Z,67.90
2018-12-07T08:53:14.446Z,65.37
2018-12-07T08:58:08.872Z,73.83
2018-12-07T09:00:37.502Z,58.90
2018-12-07T09:03:06.114Z,68.67
2018-12-07T09:05:34.742Z,64.13
2018-12-07T09:08:03.386Z,64.40
2018-12-07T09:10:32.012Z,68.13
2018-12-07T09:13:00.614Z,65.70
2018-12-07T09:15:29.241Z,63.73
2018-12-07T09:17:58.156Z,68.43
2018-12-07T09:20:26.743Z,64.27
2018-12-07T09:22:55.319Z,66.40
2018-12-07T09:25:23.945Z,70.97
2018-12-07T09:27:52.546Z,68.57
2018-12-07T09:30:21.152Z,75.57
2018-12-07T09:32:49.744Z,70.30
2018-12-07T09:35:18.342Z,67.27
2018-12-07T09:37:48.177Z,64.60
2018-12-07T09:40:16.795Z,72.13
2018-12-07T09:42:45.365Z,67.30
2018-12-07T09:45:13.953Z,71.67
2018-12-07T09:47:42.560Z,74.80
2018-12-07T09:50:11.167Z,75.87
2018-12-07T09:52:39.755Z,67.80
2018-12-07T09:55:08.360Z,72.77
2018-12-07T09:57:36.917Z,60.23
2018-12-07T10:00:06.915Z,60.57
2018-12-07T10:02:35.566Z,63.07
2018-12-07T10:05:04.725Z,60.37
2018-12-07T10:07:33.416Z,64.23
2018-12-07T10:10:02.138Z,58.50
2018-12-07T10:12:30.770Z,54.70
2018-12-07T10:14:59.429Z,60.90
2018-12-07T10:17:30.077Z,61.57
2018-12-07T10:19:58.818Z,66.07
2018-12-07T10:22:27.465Z,73.43
2018-12-07T10:24:56.009Z,74.47
2018-12-07T10:27:24.568Z,65.73
2018-12-07T10:29:53.233Z,73.07
2018-12-07T10:32:21.821Z,73.87
2018-12-07T10:34:50.685Z,66.70
2018-12-07T10:37:19.454Z,63.30
2018-12-07T10:39:48.036Z,65.77
2018-12-07T10:42:16.613Z,66.03
2018-12-07T10:44:45.229Z,67.20
2018-12-07T10:47:13.814Z,68.00
2018-12-07T10:49:42.400Z,62.70
2018-12-07T10:52:11.001Z,65.13
2018-12-07T10:54:39.577Z,66.27
2018-12-07T10:57:08.158Z,58.97
2018-12-07T10:59:36.807Z,58.00
2018-12-07T11:02:10.826Z,64.87
2018-12-07T11:04:44.761Z,67.07
2018-12-07T11:07:18.758Z,65.47
2018-12-07T11:09:52.704Z,66.93
2018-12-07T11:12:26.686Z,61.37
2018-12-07T11:15:00.728Z,59.20
2018-12-07T11:17:34.764Z,68.47
2018-12-07T11:20:08.904Z,71.77
2018-12-07T11:22:44.647Z,73.13
2018-12-07T11:25:18.698Z,70.83
2018-12-07T11:28:50.240Z,68.03
2018-12-07T11:31:24.236Z,70.73
2018-12-07T11:33:57.040Z,71.23
2018-12-07T11:36:25.641Z,74.90
2018-12-07T11:38:54.237Z,64.47
2018-12-07T11:41:22.806Z,68.87
2018-12-07T11:43:51.486Z,60.97
2018-12-07T11:46:20.336Z,67.37
2018-12-07T11:48:48.945Z,70.43
2018-12-07T11:51:17.583Z,65.70
2018-12-07T11:53:46.193Z,60.03
2018-12-07T11:58:48.765Z,94.80
2018-12-07T12:01:17.333Z,83.43
2018-12-07T12:03:45.934Z,78.33
2018-12-07T12:06:14.566Z,67.07
2018-12-07T12:08:43.155Z,66.57
2018-12-07T12:11:11.788Z,64.53
2018-12-07T12:13:40.515Z,58.27
2018-12-07T12:16:09.187Z,59.83
2018-12-07T12:18:37.777Z,63.93
2018-12-07T12:21:06.879Z,59.97
2018-12-07T12:23:35.835Z,57.40
2018-12-07T12:26:04.478Z,51.53
2018-12-07T12:28:39.327Z,53.90
2018-12-07T12:31:08.102Z,57.33
2018-12-07T12:33:36.680Z,64.70
2018-12-07T12:36:05.438Z,74.70
2018-12-07T12:38:34.061Z,69.40
2018-12-07T12:41:02.640Z,55.20
2018-12-07T12:43:31.240Z,55.40
2018-12-07T12:45:59.950Z,55.33
2018-12-07T12:48:28.564Z,62.10
2018-12-07T12:50:59.705Z,65.40
2018-12-07T12:53:28.634Z,47.40
2018-12-07T12:55:57.476Z,45.43
2018-12-07T12:58:26.134Z,54.30
2018-12-07T13:00:54.737Z,51.80
2018-12-07T13:03:23.276Z,46.97
2018-12-07T13:05:51.962Z,42.67
2018-12-07T13:08:21.136Z,45.70
2018-12-07T13:10:49.761Z,47.83
2018-12-07T13:13:18.419Z,49.53
2018-12-07T13:15:47.197Z,45.27
2018-12-07T13:18:15.807Z,46.57
2018-12-07T13:20:44.418Z,44.60
2018-12-07T13:23:13.086Z,56.17
2018-12-07T13:25:41.754Z,43.13
2018-12-07T13:28:10.535Z,39.90
2018-12-07T13:30:39.177Z,39.07
2018-12-07T13:33:07.841Z,41.00
2018-12-07T13:35:36.453Z,40.93
2018-12-07T13:38:05.761Z,37.57
2018-12-07T13:40:34.368Z,38.33
2018-12-07T13:43:03.132Z,37.30
2018-12-07T13:45:31.932Z,40.47
2018-12-07T13:48:01.128Z,41.83
2018-12-07T13:50:35.554Z,36.47
2018-12-07T13:53:04.302Z,37.13
2018-12-07T13:55:33.774Z,41.47
2018-12-07T13:58:03.424Z,38.93
2018-12-07T14:00:32.294Z,40.40
2018-12-07T14:03:01.135Z,48.37
2018-12-07T14:05:32.395Z,40.80
2018-12-07T14:08:01.471Z,50.10
2018-12-07T14:10:30.288Z,39.47
2018-12-07T14:12:59.289Z,44.63
2018-12-07T14:15:27.949Z,44.70
2018-12-07T14:17:56.764Z,42.77
2018-12-07T14:20:25.584Z,41.93
2018-12-07T14:22:54.638Z,38.93
2018-12-07T14:25:24.693Z,46.10
2018-12-07T14:27:53.451Z,47.70
2018-12-07T14:30:22.525Z,50.10
2018-12-07T14:32:51.351Z,47.30
2018-12-07T14:35:20.047Z,43.00
2018-12-07T14:37:48.819Z,49.50
2018-12-07T14:40:17.639Z,42.47
2018-12-07T14:42:46.316Z,48.00
2018-12-07T14:45:15.176Z,46.70
2018-12-07T14:47:44.875Z,45.07
2018-12-07T14:50:13.724Z,52.83
2018-12-07T14:52:43.147Z,42.17
2018-12-07T14:55:11.895Z,40.60
2018-12-07T14:57:40.754Z,48.37
2018-12-07T15:00:10.113Z,50.93
2018-12-07T15:02:38.925Z,49.27
2018-12-07T15:05:08.237Z,48.50
2018-12-07T15:07:36.933Z,47.67
2018-12-07T15:10:09.161Z,44.73
2018-12-07T15:12:38.113Z,55.77
2018-12-07T15:15:07.452Z,48.67
2018-12-07T15:17:36.462Z,56.97
2018-12-07T15:20:06.173Z,47.07
2018-12-07T15:22:35.453Z,44.63
2018-12-07T15:25:05.688Z,135.90
2018-12-07T15:27:34.594Z,118.27
2018-12-07T15:30:04.423Z,94.20
2018-12-07T15:32:33.644Z,68.90
2018-12-07T15:35:02.459Z,60.00
2018-12-07T15:37:31.263Z,51.93
2018-12-07T15:40:00.329Z,43.30
2018-12-07T15:42:29.370Z,41.67
2018-12-07T15:44:58.211Z,49.67
2018-12-07T15:47:27.512Z,56.97
2018-12-07T15:49:59.557Z,60.80
2018-12-07T15:52:28.764Z,50.47
2018-12-07T15:54:58.543Z,45.17
2018-12-07T15:57:27.962Z,44.93
2018-12-07T15:59:56.635Z,49.80
2018-12-07T16:02:25.571Z,49.57
2018-12-07T16:04:54.287Z,50.07
2018-12-07T16:07:23.070Z,52.40
2018-12-07T16:09:51.876Z,59.03
2018-12-07T16:12:20.548Z,51.17
2018-12-07T16:14:49.313Z,65.60
2018-12-07T16:17:18.157Z,60.33
2018-12-07T16:19:47.184Z,57.13
2018-12-07T16:22:15.956Z,51.53
2018-12-07T16:24:44.855Z,50.27
2018-12-07T16:27:14.486Z,52.77
2018-12-07T16:29:44.558Z,45.97
2018-12-07T16:32:13.873Z,62.97
2018-12-07T16:34:42.775Z,53.13
2018-12-07T16:37:11.657Z,54.27
2018-12-07T16:39:40.379Z,60.47
2018-12-07T16:42:09.392Z,52.77
2018-12-07T16:44:38.217Z,53.23
2018-12-07T16:47:06.959Z,55.33
2018-12-07T16:49:35.675Z,57.87
2018-12-07T16:52:04.493Z,66.20
2018-12-07T16:54:33.339Z,75.87
2018-12-07T16:57:02.102Z,80.80
2018-12-07T16:59:30.751Z,78.40
2018-12-07T17:02:00.157Z,85.20
2018-12-07T17:04:28.775Z,82.43
2018-12-07T17:07:31.838Z,77.70
2018-12-07T17:10:00.695Z,86.40
2018-12-07T17:12:29.681Z,76.37
2018-12-07T17:14:58.640Z,79.60
2018-12-07T17:17:28.055Z,81.67
2018-12-07T17:19:56.854Z,78.57
2018-12-07T17:22:25.621Z,78.40
2018-12-07T17:24:54.483Z,78.37
2018-12-07T17:27:23.295Z,89.27
2018-12-07T17:29:52.491Z,78.43
2018-12-07T17:32:22.125Z,85.57
2018-12-07T17:34:51.655Z,95.77
2018-12-07T17:37:20.507Z,84.63
2018-12-07T17:39:49.329Z,89.07
2018-12-07T17:42:18.315Z,82.27
2018-12-07T17:44:47.176Z,79.10
2018-12-07T17:47:15.808Z,77.77
2018-12-07T17:49:44.475Z,87.30
2018-12-07T17:52:13.198Z,112.13
2018-12-07T17:54:42.116Z,97.07
2018-12-07T17:57:10.988Z,92.43
2018-12-07T17:59:39.859Z,98.70
2018-12-07T18:02:08.533Z,101.83
2018-12-07T18:04:37.146Z,92.27
2018-12-07T18:07:05.860Z,80.73
2018-12-07T18:09:34.806Z,88.73
2018-12-07T18:12:04.315Z,80.63
2018-12-07T18:14:33.262Z,88.43
2018-12-07T18:17:02.302Z,94.40
2018-12-07T18:19:31.043Z,90.47
2018-12-07T18:21:59.726Z,89.67
2018-12-07T18:24:28.448Z,85.77
2018-12-07T18:26:57.431Z,82.57
2018-12-07T18:29:26.745Z,113.90
2018-12-07T18:31:55.884Z,103.87
2018-12-07T18:34:24.824Z,152.17
2018-12-07T18:36:53.775Z,124.13
2018-12-07T18:39:22.587Z,117.13
2018-12-07T18:41:51.199Z,106.37
2018-12-07T18:44:19.884Z,106.33
2018-12-07T18:46:48.665Z,85.43
2018-12-07T18:49:17.536Z,92.80
2018-12-07T18:51:46.369Z,80.53
2018-12-07T18:54:15.288Z,79.97
2018-12-07T18:56:44.064Z,76.20
2018-12-07T18:59:12.740Z,87.93
2018-12-07T19:01:41.504Z,75.17
2018-12-07T19:04:10.319Z,85.87
2018-12-07T19:06:39.380Z,80.83
2018-12-07T19:09:09.481Z,74.20
2018-12-07T19:11:38.304Z,85.53
2018-12-07T19:14:07.438Z,78.13
2018-12-07T19:16:36.361Z,79.23
2018-12-07T19:19:05.374Z,85.53
2018-12-07T19:21:35.035Z,93.77
2018-12-07T19:24:04.502Z,89.93
2018-12-07T19:26:33.662Z,95.53
2018-12-07T19:29:02.471Z,89.93
2018-12-07T19:31:31.090Z,86.07
2018-12-07T19:33:59.856Z,75.30
2018-12-07T19:36:28.782Z,72.80
2018-12-07T19:38:58.166Z,75.07
2018-12-07T19:41:27.003Z,65.87
2018-12-07T19:43:55.757Z,75.10
2018-12-07T19:46:24.393Z,77.13
2018-12-07T19:48:53.275Z,68.83
2018-12-07T19:51:22.520Z,72.27
2018-12-07T19:53:51.375Z,61.77
2018-12-07T19:56:20.229Z,65.17
2018-12-07T19:58:49.657Z,64.97
2018-12-07T20:01:18.354Z,63.67
2018-12-07T20:03:47.204Z,72.13
2018-12-07T20:06:16.142Z,64.47
2018-12-07T20:08:44.957Z,66.43
2018-12-07T20:11:13.727Z,62.77
2018-12-07T20:13:42.735Z,72.63
2018-12-07T20:16:11.616Z,65.27
2018-12-07T20:18:40.294Z,63.13
2018-12-07T20:21:09.246Z,66.03
2018-12-07T20:23:38.390Z,68.67
2018-12-07T20:26:07.370Z,58.73
2018-12-07T20:28:36.255Z,67.63
2018-12-07T20:31:04.835Z,54.40
2018-12-07T20:33:33.804Z,64.93
2018-12-07T20:36:03.036Z,72.73
2018-12-07T20:38:31.950Z,54.53
2018-12-07T20:41:00.851Z,62.57
2018-12-07T20:43:30.622Z,67.23
2018-12-07T20:45:59.316Z,63.07
2018-12-07T20:48:28.174Z,66.53
2018-12-07T20:50:56.979Z,59.30
2018-12-07T20:53:25.741Z,62.03
2018-12-07T20:55:54.541Z,63.30
2018-12-07T20:58:23.570Z,67.53
2018-12-07T21:00:59.165Z,60.87
2018-12-07T21:03:41.837Z,72.10
2018-12-07T21:06:28.022Z,68.63
2018-12-07T21:09:22.748Z,69.40
2018-12-07T21:11:56.509Z,67.23
2018-12-07T21:14:32.626Z,67.83
2018-12-07T21:17:35.689Z,70.57
2018-12-07T21:20:18.218Z,69.80
2018-12-07T21:22:47.149Z,77.63
2018-12-07T21:25:15.968Z,84.63
2018-12-07T21:27:44.730Z,74.47
2018-12-07T21:30:49.578Z,88.40
2018-12-07T21:33:23.623Z,85.10
2018-12-07T21:36:35.718Z,85.43
2018-12-07T21:39:09.314Z,89.70
2018-12-07T21:41:38.044Z,91.03
2018-12-07T21:44:06.883Z,121.63
2018-12-07T21:46:35.951Z,150.43
2018-12-07T21:49:04.762Z,103.00
2018-12-07T21:52:37.736Z,106.57
2018-12-07T21:55:06.638Z,101.47
2018-12-07T21:57:35.497Z,136.33
2018-12-07T22:00:05.527Z,139.23
2018-12-07T22:02:34.745Z,103.20
2018-12-07T22:05:03.744Z,88.70
2018-12-07T22:07:32.835Z,116.53
2018-12-07T22:10:01.673Z,99.13
2018-12-07T22:12:30.533Z,104.83
2018-12-07T22:14:59.297Z,106.83
2018-12-07T22:17:28.291Z,109.77
2018-12-07T22:19:57.136Z,106.07
2018-12-07T22:22:25.858Z,82.03
2018-12-07T22:24:54.643Z,87.07
2018-12-07T22:27:23.296Z,94.03
2018-12-07T22:29:52.451Z,89.63
2018-12-07T22:32:21.436Z,91.97
2018-12-07T22:34:50.191Z,88.43
2018-12-07T22:37:18.992Z,79.80
2018-12-07T22:39:47.843Z,86.43
2018-12-07T22:42:16.480Z,83.20
2018-12-07T22:44:45.324Z,80.93
2018-12-07T22:47:14.011Z,83.97
2018-12-07T22:49:42.624Z,82.40
2018-12-07T22:52:11.250Z,84.70
2018-12-07T22:54:39.801Z,85.37
2018-12-07T22:57:08.393Z,83.43
2018-12-07T22:59:36.986Z,77.30
2018-12-07T23:02:05.993Z,86.60
2018-12-07T23:04:34.614Z,77.07
2018-12-07T23:07:03.942Z,83.70
2018-12-07T23:09:32.535Z,79.30
2018-12-07T23:12:01.145Z,84.90
2018-12-07T23:14:29.727Z,82.23
2018-12-07T23:16:58.291Z,82.93
2018-12-07T23:19:26.898Z,82.23
2018-12-07T23:21:55.519Z,79.03
2018-12-07T23:24:24.107Z,78.77
2018-12-07T23:26:52.657Z,80.60
2018-12-07T23:29:23.221Z,77.03
2018-12-07T23:31:51.977Z,66.60
2018-12-07T23:34:20.681Z,73.87
2018-12-07T23:36:49.698Z,78.30
2018-12-07T23:39:19.176Z,71.47
2018-12-07T23:41:48.273Z,76.10
2018-12-07T23:44:16.951Z,73.83
2018-12-07T23:46:45.663Z,72.43
2018-12-07T23:49:14.249Z,72.50
2018-12-07T23:51:42.880Z,71.87
2018-12-07T23:54:11.503Z,68.17
2018-12-07T23:56:40.057Z,69.53
2018-12-07T23:59:08.671Z,71.10
